Time;durP1;ratioP1;P1;durP2;ratioP2;P2;SDS_P1;SDS_P2;PMS_P1;PMS_P2;Temp;Humidity;BMP_temperature;BMP_pressure;BME280_temperature;BME280_humidity;BME280_pressure;Samples;Min_cycle;Max_cycle;Signal;HPM_P1;HPM_P2
2021/06/03 06:49:04;;;;;;;;;;;;;;;12.68;100.00;99987.75;5012358;28;20220;-81
2021/06/03 06:51:30;;;;;;;;;;;;;;;12.59;100.00;99990.84;5015106;28;19921;-81
2021/06/03 06:53:55;;;;;;;;;;;;;;;12.68;100.00;99996.59;5015764;28;19917;-85
2021/06/03 06:56:20;;;;;;;;;;;;;;;12.66;100.00;99994.94;4998748;28;19964;-82
2021/06/03 06:58:46;;;;;;;;;;;;;;;12.77;100.00;99999.75;5016238;28;19960;-83
2021/06/03 07:01:11;;;;;;;;;;;;;;;12.68;100.00;99999.25;5016562;28;20268;-81
2021/06/03 07:03:36;;;;;;;;;;;;;;;12.93;100.00;100002.53;5015936;28;20610;-83
2021/06/03 07:06:02;;;;;;;;;;;;;;;13.03;100.00;99996.66;5015661;28;19921;-81
2021/06/03 07:08:27;;;;;;;;;;;;;;;12.92;100.00;100003.44;5015511;28;19921;-81
2021/06/03 07:10:54;;;;;;;;;;;;;;;12.83;100.00;100000.31;5015765;28;19984;-82
2021/06/03 07:13:20;;;;;;;;;;;;;;;12.63;100.00;100005.72;5015224;28;19924;-81
2021/06/03 07:15:46;;;;;;;;;;;;;;;12.72;100.00;100005.28;5014813;28;19921;-82
2021/06/03 07:18:11;;;;;;;;;;;;;;;12.62;100.00;100004.88;4979077;28;20022;-80
2021/06/03 07:20:37;;;;;;;;;;;;;;;12.69;100.00;100008.94;4995293;28;19938;-81
2021/06/03 07:23:06;;;;;;;;;;;;;;;12.75;100.00;100004.25;4996027;28;19918;-82
2021/06/03 07:25:33;;;;;;;;;;;;;;;12.79;100.00;100001.38;5003488;28;19940;-82
2021/06/03 07:28:00;;;;;;;;;;;;;;;12.38;100.00;100006.03;4966654;28;21367;-80
2021/06/03 07:30:26;;;;;;;;;;;;;;;12.69;100.00;100005.44;4998721;28;19949;-81
2021/06/03 07:32:52;;;;;;;;;;;;;;;12.78;100.00;100014.75;5014169;28;19964;-81
2021/06/03 07:35:19;;;;;;;;;;;;;;;12.67;100.00;100010.81;4983266;28;20016;-80
2021/06/03 07:37:45;;;;;;;;;;;;;;;12.54;100.00;100015.88;5001396;28;19930;-80
2021/06/03 07:40:12;;;;;;;;;;;;;;;12.63;100.00;100009.22;5011513;28;19926;-80
2021/06/03 07:42:38;;;;;;;;;;;;;;;12.54;100.00;100013.22;4996055;28;19992;-81
2021/06/03 07:45:06;;;;;;;;;;;;;;;12.78;100.00;100010.31;4979151;28;20457;-81
2021/06/03 07:47:31;;;;;;;;;;;;;;;12.60;100.00;100012.03;4995190;28;19989;-81
2021/06/03 07:49:57;;;;;;;;;;;;;;;12.84;100.00;100018.00;4996468;28;19929;-80
2021/06/03 07:52:22;;;;;;;;;;;;;;;12.74;100.00;100016.69;4995142;28;20297;-81
2021/06/03 07:54:47;;;;;;;;;;;;;;;12.73;100.00;100020.28;4978079;28;19922;-80
2021/06/03 07:57:13;;;;;;;;;;;;;;;12.83;100.00;100024.25;4999567;28;19930;-82
2021/06/03 07:59:40;;;;;;;;;;;;;;;12.56;100.00;100025.53;5005049;28;19921;-82
2021/06/03 08:02:06;;;;;;;;;;;;;;;12.75;100.00;100026.41;4990950;28;20142;-81
2021/06/03 08:04:31;;;;;;;;;;;;;;;12.50;100.00;100022.25;5006465;28;19922;-80
2021/06/03 08:06:57;;;;;;;;;;;;;;;12.70;100.00;100025.75;5004440;28;20008;-89
2021/06/03 08:09:22;;;;;;;;;;;;;;;12.76;100.00;100025.47;4996470;28;20317;-81
2021/06/03 08:11:47;;;;;;;;;;;;;;;12.70;100.00;100031.06;5008459;28;19929;-84
2021/06/03 08:14:13;;;;;;;;;;;;;;;12.80;100.00;100035.03;5006626;28;19928;-80
2021/06/03 08:16:39;;;;;;;;;;;;;;;12.85;100.00;100030.34;4990173;28;19921;-81
2021/06/03 08:19:05;;;;;;;;;;;;;;;12.81;100.00;100041.19;5010855;28;19921;-81
2021/06/03 08:21:33;;;;;;;;;;;;;;;12.82;100.00;100038.47;4985980;28;19926;-81
2021/06/03 08:23:58;;;;;;;;;;;;;;;12.44;100.00;100042.94;5003670;28;19925;-80
2021/06/03 08:26:27;;;;;;;;;;;;;;;12.53;100.00;100027.41;4991904;28;20308;-81
2021/06/03 08:28:53;;;;;;;;;;;;;;;12.69;100.00;100037.34;5015141;28;20500;-82
2021/06/03 08:31:18;;;;;;;;;;;;;;;12.54;100.00;100028.31;4990003;28;19933;-80
2021/06/03 08:33:43;;;;;;;;;;;;;;;12.45;100.00;100032.25;5004312;28;20309;-81
2021/06/03 08:36:09;;;;;;;;;;;;;;;12.32;100.00;100037.25;4992213;28;19980;-80
2021/06/03 08:38:34;;;;;;;;;;;;;;;12.15;100.00;100038.03;5011766;28;20323;-80
2021/06/03 08:41:01;;;;;;;;;;;;;;;12.50;100.00;100032.88;5008178;28;19928;-81
2021/06/03 08:43:27;;;;;;;;;;;;;;;12.64;100.00;100034.91;5005190;28;20008;-83
2021/06/03 08:45:54;;;;;;;;;;;;;;;12.43;100.00;100031.47;4990404;28;19921;-81
2021/06/03 08:48:20;;;;;;;;;;;;;;;12.81;100.00;100036.75;5010909;28;19933;-81
2021/06/03 08:50:47;;;;;;;;;;;;;;;12.74;100.00;100032.66;5006531;28;19952;-81
2021/06/03 08:53:12;;;;;;;;;;;;;;;12.70;100.00;100036.38;4985693;28;19933;-80
2021/06/03 08:58:23;;;;;;;;;;;;;;;12.27;100.00;100043.72;5008273;28;20227;-83
2021/06/03 09:00:49;;;;;;;;;;;;;;;12.32;100.00;100044.38;4990483;28;19929;-85
2021/06/03 09:03:15;;;;;;;;;;;;;;;12.68;100.00;100041.81;5009032;28;19922;-81
2021/06/03 09:05:41;;;;;;;;;;;;;;;12.31;100.00;100040.84;5010271;28;19939;-82
2021/06/03 09:08:16;;;;;;;;;;;;;;;12.72;100.00;100031.88;5007137;28;19933;-81
2021/06/03 09:10:42;;;;;;;;;;;;;;;12.70;100.00;100020.44;5004959;28;19961;-81
2021/06/03 09:13:11;;;;;;;;;;;;;;;12.59;100.00;100031.59;4988774;28;19926;-83
2021/06/03 09:15:39;;;;;;;;;;;;;;;12.65;100.00;100033.09;5010566;28;19933;-82
2021/06/03 09:18:08;;;;;;;;;;;;;;;12.84;100.00;100022.44;4989752;28;19922;-83
2021/06/03 09:20:33;;;;;;;;;;;;;;;12.78;100.00;100031.59;5007986;28;19981;-83
2021/06/03 09:22:59;;;;;;;;;;;;;;;13.00;100.00;100019.88;5008322;28;19933;-81
2021/06/03 09:25:31;;;;;;;;;;;;;;;13.07;100.00;100022.16;4989950;28;19932;-82
2021/06/03 09:28:17;;;;;;;;;;;;;;;13.13;100.00;100023.69;5008014;28;19982;-83
2021/06/03 09:30:52;;;;;;;;;;;;;;;13.12;100.00;100021.09;5010592;28;19933;-82
2021/06/03 09:33:18;;;;;;;;;;;;;;;12.94;100.00;100025.50;4996528;28;19925;-79
2021/06/03 09:35:53;;;;;;;;;;;;;;;12.95;100.00;100013.94;4988076;28;19917;-83
2021/06/03 09:38:19;;;;;;;;;;;;;;;12.85;100.00;100019.69;5006954;28;19930;-82
2021/06/03 09:40:49;;;;;;;;;;;;;;;12.80;100.00;100020.88;5005958;28;19988;-82
2021/06/03 09:43:20;;;;;;;;;;;;;;;12.79;100.00;100027.13;5008499;28;19936;-81
2021/06/03 09:45:54;;;;;;;;;;;;;;;12.65;100.00;100022.47;4986242;28;19922;-83
2021/06/03 09:48:39;;;;;;;;;;;;;;;12.81;100.00;100025.25;4987913;28;19953;-84
2021/06/03 09:51:17;;;;;;;;;;;;;;;12.90;100.00;100019.47;4982381;28;19926;-82
2021/06/03 09:54:04;;;;;;;;;;;;;;;12.97;100.00;100023.56;4985038;28;19933;-80
2021/06/03 09:56:29;;;;;;;;;;;;;;;12.92;100.00;100016.75;5008945;28;19928;-81
2021/06/03 09:58:56;;;;;;;;;;;;;;;12.79;100.00;100024.47;5006731;28;19922;-79
2021/06/03 10:01:44;;;;;;;;;;;;;;;12.70;100.00;100025.75;4985641;28;19993;-81
2021/06/03 10:04:12;;;;;;;;;;;;;;;12.79;100.00;100027.13;5003721;28;19930;-82
2021/06/03 10:06:58;;;;;;;;;;;;;;;12.58;100.00;100023.69;5006310;28;19933;-81
2021/06/03 10:09:36;;;;;;;;;;;;;;;12.57;100.00;100029.94;5009504;28;19932;-82
2021/06/03 10:12:05;;;;;;;;;;;;;;;12.45;100.00;100031.38;5004919;28;19921;-82
2021/06/03 10:14:31;;;;;;;;;;;;;;;12.54;100.00;100029.16;4984511;28;20009;-81
2021/06/03 10:17:11;;;;;;;;;;;;;;;12.78;100.00;100025.38;5006616;28;19929;-82
2021/06/03 10:19:36;;;;;;;;;;;;;;;12.71;100.00;100025.69;5007083;28;19926;-82
2021/06/03 10:22:17;;;;;;;;;;;;;;;12.63;100.00;100022.53;5002927;28;19948;-82
2021/06/03 10:25:02;;;;;;;;;;;;;;;12.73;100.00;100028.25;5006135;28;19921;-83
2021/06/03 10:27:34;;;;;;;;;;;;;;;12.83;100.00;100026.06;5001953;28;20218;-82
2021/06/03 10:30:01;;;;;;;;;;;;;;;12.36;100.00;100024.69;4986973;28;19936;-83
2021/06/03 10:32:29;;;;;;;;;;;;;;;12.87;100.00;100024.94;5004874;28;19939;-82
2021/06/03 10:34:57;;;;;;;;;;;;;;;12.74;100.00;100022.03;5005783;28;19914;-81
2021/06/03 10:37:25;;;;;;;;;;;;;;;12.44;100.00;100021.69;5000848;28;20365;-83
2021/06/03 10:39:51;;;;;;;;;;;;;;;12.94;100.00;100025.50;4988397;28;19984;-82
2021/06/03 10:42:18;;;;;;;;;;;;;;;12.63;100.00;100022.53;4989766;28;19940;-82
2021/06/03 10:44:44;;;;;;;;;;;;;;;12.74;100.00;100014.03;5003476;28;19922;-81
2021/06/03 10:47:10;;;;;;;;;;;;;;;12.89;100.00;100013.31;5002235;28;20301;-83
2021/06/03 10:49:36;;;;;;;;;;;;;;;12.98;100.00;100016.44;5003009;28;19925;-82
2021/06/03 10:52:07;;;;;;;;;;;;;;;12.69;100.00;100022.25;5001742;28;19925;-81
2021/06/03 10:54:38;;;;;;;;;;;;;;;12.75;100.00;100020.22;4990775;28;19937;-81
2021/06/03 10:57:04;;;;;;;;;;;;;;;12.88;100.00;100011.56;4987116;28;19960;-83
2021/06/03 10:59:31;;;;;;;;;;;;;;;12.62;100.00;100017.28;5000700;28;20453;-84
2021/06/03 11:01:59;;;;;;;;;;;;;;;12.94;100.00;100014.88;4983412;28;19937;-81
2021/06/03 11:04:29;;;;;;;;;;;;;;;13.03;100.00;100017.94;4985322;28;19930;-81
2021/06/03 11:06:55;;;;;;;;;;;;;;;12.61;100.00;100013.78;4984047;28;19972;-82
2021/06/03 11:09:26;;;;;;;;;;;;;;;13.07;100.00;100016.00;4985606;28;19953;-81
2021/06/03 11:12:10;;;;;;;;;;;;;;;12.51;100.00;100013.34;5005515;28;19922;-84
2021/06/03 11:14:54;;;;;;;;;;;;;;;12.91;100.00;100010.56;5006139;28;19956;-82
2021/06/03 11:17:39;;;;;;;;;;;;;;;12.99;100.00;100004.88;4985442;28;19921;-80
2021/06/03 11:20:07;;;;;;;;;;;;;;;12.45;100.00;100004.81;4985884;28;19928;-82
2021/06/03 11:22:33;;;;;;;;;;;;;;;12.97;100.00;100007.63;5004806;28;19995;-82
2021/06/03 11:25:03;;;;;;;;;;;;;;;12.05;100.00;100002.19;5007564;28;20256;-81
2021/06/03 11:27:43;;;;;;;;;;;;;;;11.86;99.43;100009.25;5007763;28;20572;-82
2021/06/03 11:30:11;;;;;;;;;;;;;;;12.52;100.00;100008.88;4990582;28;19922;-83
2021/06/03 11:32:39;;;;;;;;;;;;;;;12.79;100.00;100001.38;5011963;28;19980;-80
2021/06/03 11:35:07;;;;;;;;;;;;;;;12.87;100.00;100001.88;5007395;28;19929;-81
2021/06/03 11:37:36;;;;;;;;;;;;;;;12.91;100.00;99997.28;5010120;28;19933;-82
2021/06/03 11:40:08;;;;;;;;;;;;;;;12.92;100.00;99996.31;4989677;28;19933;-82
2021/06/03 11:42:40;;;;;;;;;;;;;;;12.44;100.00;99993.31;4989160;28;20012;-78
2021/06/03 11:45:12;;;;;;;;;;;;;;;12.83;100.00;99997.66;4987247;28;19932;-82
2021/06/03 11:47:37;;;;;;;;;;;;;;;12.72;100.00;99997.31;5003168;28;20537;-82
2021/06/03 11:50:07;;;;;;;;;;;;;;;12.83;100.00;99996.78;4985850;28;19933;-82
2021/06/03 11:52:32;;;;;;;;;;;;;;;12.61;100.00;99994.31;5001844;28;19960;-80
2021/06/03 11:54:59;;;;;;;;;;;;;;;12.89;100.00;99991.16;5005922;28;20317;-83
2021/06/03 11:57:29;;;;;;;;;;;;;;;12.84;100.00;99996.72;4999015;28;20286;-82
2021/06/03 12:00:03;;;;;;;;;;;;;;;12.84;100.00;99993.19;5004484;28;19937;-82
2021/06/03 12:02:35;;;;;;;;;;;;;;;12.59;100.00;99985.53;4983113;28;19922;-79
2021/06/03 12:05:13;;;;;;;;;;;;;;;12.86;100.00;99986.88;5002539;28;19949;-85
2021/06/03 12:07:50;;;;;;;;;;;;;;;12.96;100.00;99976.63;4991012;28;19926;-82
2021/06/03 12:10:17;;;;;;;;;;;;;;;12.80;100.00;99981.84;5004402;28;19926;-84
2021/06/03 12:12:43;;;;;;;;;;;;;;;12.64;100.00;99980.88;5001450;28;19937;-83
2021/06/03 12:15:22;;;;;;;;;;;;;;;12.98;100.00;99968.56;5002644;28;20285;-85
2021/06/03 12:17:53;;;;;;;;;;;;;;;12.69;100.00;99970.88;4986464;28;19929;-81
2021/06/03 12:20:19;;;;;;;;;;;;;;;13.01;100.00;99968.44;4985772;28;20005;-82
2021/06/03 12:22:46;;;;;;;;;;;;;;;13.03;100.00;99961.22;4984937;28;19929;-81
2021/06/03 12:25:12;;;;;;;;;;;;;;;12.97;100.00;99961.53;4998781;28;19922;-84
2021/06/03 12:27:40;;;;;;;;;;;;;;;12.46;100.00;99956.03;5001586;28;19933;-83
2021/06/03 12:30:09;;;;;;;;;;;;;;;12.23;100.00;99957.13;5001441;28;19929;-81
2021/06/03 12:32:36;;;;;;;;;;;;;;;12.83;100.00;99949.78;5001937;28;19921;-82
2021/06/03 12:35:03;;;;;;;;;;;;;;;12.84;100.00;99951.53;5005372;28;19921;-84
2021/06/03 12:37:33;;;;;;;;;;;;;;;12.76;100.00;99956.31;4982910;28;19929;-82
2021/06/03 12:40:00;;;;;;;;;;;;;;;12.99;100.00;99944.56;5004212;28;19960;-83
2021/06/03 12:42:28;;;;;;;;;;;;;;;12.63;100.00;99948.09;4983390;28;19921;-81
2021/06/03 12:44:55;;;;;;;;;;;;;;;12.59;100.00;99943.88;5008555;28;19921;-82
2021/06/03 12:47:22;;;;;;;;;;;;;;;13.07;100.00;99950.34;5004747;28;19965;-81
2021/06/03 12:49:47;;;;;;;;;;;;;;;12.94;100.00;99945.72;5009054;28;19971;-81
2021/06/03 12:52:13;;;;;;;;;;;;;;;13.08;100.00;99948.53;5003013;28;19969;-84
2021/06/03 12:54:38;;;;;;;;;;;;;;;13.07;100.00;99941.53;5005964;28;19977;-81
2021/06/03 12:57:07;;;;;;;;;;;;;;;13.19;100.00;99934.69;5004551;28;20257;-82
2021/06/03 12:59:36;;;;;;;;;;;;;;;13.22;100.00;99937.22;4985765;28;19953;-81
2021/06/03 13:02:03;;;;;;;;;;;;;;;13.29;100.00;99929.75;4988434;28;19956;-82
2021/06/03 13:04:40;;;;;;;;;;;;;;;13.02;100.00;99940.88;4984748;28;19965;-84
2021/06/03 13:07:06;;;;;;;;;;;;;;;12.95;100.00;99937.66;5003266;28;19933;-81
2021/06/03 13:09:32;;;;;;;;;;;;;;;13.16;100.00;99935.75;4989095;28;20240;-82
2021/06/03 13:14:43;;;;;;;;;;;;;;;12.97;100.00;99926.94;5002648;28;19977;-84
2021/06/03 13:17:11;;;;;;;;;;;;;;;13.15;100.00;99928.69;5006614;28;19921;-81
2021/06/03 13:19:38;;;;;;;;;;;;;;;13.19;100.00;99921.41;4988554;28;19929;-82
2021/06/03 13:22:04;;;;;;;;;;;;;;;12.88;100.00;99920.31;4990480;28;19929;-83
2021/06/03 13:24:33;;;;;;;;;;;;;;;12.86;100.00;99920.38;5006639;28;19929;-84
2021/06/03 13:27:00;;;;;;;;;;;;;;;13.21;100.00;99923.06;5009219;28;19926;-82
2021/06/03 13:29:27;;;;;;;;;;;;;;;13.33;100.00;99920.72;5005306;28;19937;-86
2021/06/03 13:32:00;;;;;;;;;;;;;;;12.85;100.00;99918.66;4986655;28;19956;-87
2021/06/03 13:34:30;;;;;;;;;;;;;;;12.92;100.00;99915.69;4995296;28;20609;-86
2021/06/03 13:37:10;;;;;;;;;;;;;;;12.27;100.00;99918.84;5007897;28;19945;-83
2021/06/03 13:39:41;;;;;;;;;;;;;;;13.02;100.00;99919.59;5007453;28;19962;-83
2021/06/03 13:42:12;;;;;;;;;;;;;;;13.11;100.00;99916.47;5003124;28;19921;-83
2021/06/03 13:44:58;;;;;;;;;;;;;;;12.58;100.00;99914.72;5000045;28;19986;-82
2021/06/03 13:47:37;;;;;;;;;;;;;;;13.24;100.00;99911.38;4983323;28;19930;-80
2021/06/03 13:50:20;;;;;;;;;;;;;;;12.93;100.00;99912.94;5001776;28;19928;-82
2021/06/03 13:53:03;;;;;;;;;;;;;;;13.23;100.00;99910.53;5006420;28;19945;-84
2021/06/03 13:55:32;;;;;;;;;;;;;;;13.07;100.00;99905.13;5008150;28;19957;-80
2021/06/03 13:57:58;;;;;;;;;;;;;;;13.22;100.00;99898.16;5002245;28;19930;-80
2021/06/03 14:00:26;;;;;;;;;;;;;;;13.12;100.00;99896.06;5000581;28;20006;-79
2021/06/03 14:02:56;;;;;;;;;;;;;;;12.85;100.00;99897.38;5005400;28;19992;-81
2021/06/03 14:05:23;;;;;;;;;;;;;;;13.07;100.00;99893.66;5002548;28;20460;-85
2021/06/03 14:08:07;;;;;;;;;;;;;;;12.99;100.00;99895.84;5005818;28;19926;-83
2021/06/03 14:10:34;;;;;;;;;;;;;;;12.25;100.00;99891.50;5006334;28;20548;-84
2021/06/03 14:13:04;;;;;;;;;;;;;;;12.93;100.00;99882.84;5006425;28;19921;-81
2021/06/03 14:15:40;;;;;;;;;;;;;;;13.25;100.00;99884.69;5000011;28;19929;-85
2021/06/03 14:18:07;;;;;;;;;;;;;;;12.93;100.00;99885.50;4999260;28;20221;-83
2021/06/03 14:20:33;;;;;;;;;;;;;;;13.00;100.00;99889.56;5005693;28;19922;-80
2021/06/03 14:23:00;;;;;;;;;;;;;;;13.42;100.00;99890.97;5003033;28;19925;-83
2021/06/03 14:25:35;;;;;;;;;;;;;;;13.61;100.00;99893.53;4980751;28;19921;-82
2021/06/03 14:28:10;;;;;;;;;;;;;;;13.46;100.00;99895.19;5006373;28;19934;-83
2021/06/03 14:30:37;;;;;;;;;;;;;;;13.32;100.00;99893.19;5003562;28;20316;-84
2021/06/03 14:33:05;;;;;;;;;;;;;;;13.31;100.00;99899.47;4988009;28;20241;-82
2021/06/03 14:35:45;;;;;;;;;;;;;;;12.89;100.00;99898.97;5007140;28;21325;-81
2021/06/03 14:38:13;;;;;;;;;;;;;;;13.38;100.00;99902.72;5007983;28;19922;-81
2021/06/03 14:40:39;;;;;;;;;;;;;;;13.25;100.00;99903.31;5005971;28;19934;-82
2021/06/03 14:43:08;;;;;;;;;;;;;;;13.15;100.00;99901.22;5004140;28;19929;-81
2021/06/03 14:45:35;;;;;;;;;;;;;;;13.32;100.00;99903.00;5002587;28;20178;-84
2021/06/03 14:48:02;;;;;;;;;;;;;;;12.84;100.00;99908.97;5003083;28;19981;-82
2021/06/03 14:50:33;;;;;;;;;;;;;;;13.06;100.00;99908.72;5001819;28;19933;-82
2021/06/03 14:53:00;;;;;;;;;;;;;;;13.18;100.00;99901.03;5004724;28;19922;-86
2021/06/03 14:55:31;;;;;;;;;;;;;;;13.55;100.00;99907.16;5007817;28;20020;-82
2021/06/03 14:57:58;;;;;;;;;;;;;;;13.52;100.00;99900.19;5004536;28;19925;-82
2021/06/03 15:00:25;;;;;;;;;;;;;;;13.48;100.00;99903.09;4988863;28;19922;-83
2021/06/03 15:02:52;;;;;;;;;;;;;;;13.37;100.00;99906.31;4988097;28;19929;-82
2021/06/03 15:05:19;;;;;;;;;;;;;;;13.49;100.00;99907.47;5008771;28;19948;-84
2021/06/03 15:07:47;;;;;;;;;;;;;;;13.63;100.00;99902.28;5002076;28;19921;-83
2021/06/03 15:10:14;;;;;;;;;;;;;;;13.77;100.00;99893.56;4999413;28;20051;-82
2021/06/03 15:12:40;;;;;;;;;;;;;;;13.73;100.00;99902.63;5007733;28;19952;-82
2021/06/03 15:15:07;;;;;;;;;;;;;;;13.39;100.00;99888.47;5004504;28;20361;-84
2021/06/03 15:17:34;;;;;;;;;;;;;;;13.55;100.00;99891.19;4990074;28;20244;-82
2021/06/03 15:19:59;;;;;;;;;;;;;;;13.65;100.00;99888.88;5003379;28;19937;-84
2021/06/03 15:22:25;;;;;;;;;;;;;;;13.84;100.00;99884.25;5005522;28;20308;-84
2021/06/03 15:24:51;;;;;;;;;;;;;;;13.83;100.00;99881.69;5003144;28;19925;-82
2021/06/03 15:27:17;;;;;;;;;;;;;;;13.85;100.00;99887.78;5000433;28;20001;-84
2021/06/03 15:29:43;;;;;;;;;;;;;;;13.86;100.00;99882.38;4985880;28;19936;-83
2021/06/03 15:32:10;;;;;;;;;;;;;;;13.98;100.00;99884.38;5003659;28;19929;-84
2021/06/03 15:34:36;;;;;;;;;;;;;;;13.93;100.00;99877.59;4996563;28;19953;-82
2021/06/03 15:37:03;;;;;;;;;;;;;;;13.90;100.00;99875.94;4991994;28;19979;-84
2021/06/03 15:39:29;;;;;;;;;;;;;;;13.81;100.00;99879.09;4987381;28;20237;-81
2021/06/03 15:41:55;;;;;;;;;;;;;;;13.77;100.00;99874.91;5007297;28;19922;-82
2021/06/03 15:44:20;;;;;;;;;;;;;;;13.62;100.00;99873.91;5010683;28;19922;-82
2021/06/03 15:46:47;;;;;;;;;;;;;;;13.65;100.00;99864.91;4981198;28;20197;-83
2021/06/03 15:49:17;;;;;;;;;;;;;;;13.56;100.00;99875.13;5006103;28;19925;-83
2021/06/03 15:51:43;;;;;;;;;;;;;;;13.56;100.00;99871.59;4986803;28;20331;-82
2021/06/03 15:54:08;;;;;;;;;;;;;;;13.68;100.00;99868.25;4988758;28;19930;-84
2021/06/03 15:56:37;;;;;;;;;;;;;;;13.66;100.00;99861.28;4999970;28;20206;-83
2021/06/03 15:59:04;;;;;;;;;;;;;;;13.68;100.00;99870.94;5007276;28;20013;-81
2021/06/03 16:01:32;;;;;;;;;;;;;;;13.79;100.00;99865.03;4987668;28;19971;-84
2021/06/03 16:03:58;;;;;;;;;;;;;;;13.79;100.00;99865.88;5003061;28;19952;-82
2021/06/03 16:06:24;;;;;;;;;;;;;;;13.99;100.00;99869.22;5006642;28;19925;-81
2021/06/03 16:08:50;;;;;;;;;;;;;;;13.96;100.00;99878.28;4980759;28;20293;-83
2021/06/03 16:11:16;;;;;;;;;;;;;;;13.99;100.00;99880.75;5007369;28;19929;-81
2021/06/03 16:13:41;;;;;;;;;;;;;;;13.99;100.00;99883.44;4984042;28;19921;-82
2021/06/03 16:16:06;;;;;;;;;;;;;;;14.03;100.00;99885.94;5002328;28;20016;-83
2021/06/03 16:18:32;;;;;;;;;;;;;;;14.04;100.00;99884.97;5002105;28;19981;-80
2021/06/03 16:20:59;;;;;;;;;;;;;;;14.09;100.00;99889.09;5009750;28;19984;-82
2021/06/03 16:23:26;;;;;;;;;;;;;;;14.04;100.00;99885.84;5004324;28;20433;-81
2021/06/03 16:25:53;;;;;;;;;;;;;;;13.98;100.00;99888.84;5004369;28;19949;-81
2021/06/03 16:28:19;;;;;;;;;;;;;;;14.01;100.00;99886.00;4985814;28;20320;-82
2021/06/03 16:30:44;;;;;;;;;;;;;;;13.94;100.00;99880.13;4986932;28;19948;-81
2021/06/03 16:33:18;;;;;;;;;;;;;;;13.97;100.00;99879.13;4992947;28;20208;-83
2021/06/03 16:35:44;;;;;;;;;;;;;;;13.94;100.00;99877.47;4991471;28;19984;-82
2021/06/03 16:38:10;;;;;;;;;;;;;;;13.90;100.00;99883.94;4988471;28;19922;-81
2021/06/03 16:40:40;;;;;;;;;;;;;;;14.05;100.00;99876.03;5006664;28;19926;-80
2021/06/03 16:43:06;;;;;;;;;;;;;;;14.10;100.00;99876.63;5004211;28;19937;-80
2021/06/03 16:45:32;;;;;;;;;;;;;;;14.10;100.00;99882.81;4986246;28;19969;-82
2021/06/03 16:47:58;;;;;;;;;;;;;;;14.11;100.00;99881.88;4999677;28;19925;-81
2021/06/03 16:50:24;;;;;;;;;;;;;;;14.13;100.00;99879.13;4992212;28;20008;-83
2021/06/03 16:52:50;;;;;;;;;;;;;;;14.13;100.00;99881.78;5008661;28;19925;-82
2021/06/03 16:55:17;;;;;;;;;;;;;;;14.06;100.00;99883.09;4990572;28;19930;-81
2021/06/03 16:57:44;;;;;;;;;;;;;;;14.03;100.00;99884.09;5011022;28;20273;-82
2021/06/03 17:00:19;;;;;;;;;;;;;;;14.06;100.00;99883.09;4994363;28;20509;-81
2021/06/03 17:02:45;;;;;;;;;;;;;;;14.03;100.00;99886.78;4994462;28;19930;-81
2021/06/03 17:05:11;;;;;;;;;;;;;;;14.05;100.00;99884.03;5008457;28;20358;-82
2021/06/03 17:07:37;;;;;;;;;;;;;;;14.05;100.00;99878.69;5010890;28;19985;-83
2021/06/03 17:10:03;;;;;;;;;;;;;;;14.06;100.00;99886.59;5006151;28;20009;-81
2021/06/03 17:12:28;;;;;;;;;;;;;;;14.08;100.00;99886.53;4990794;28;19926;-81
2021/06/03 17:14:54;;;;;;;;;;;;;;;14.05;100.00;99894.69;4985539;28;19913;-82
2021/06/03 17:17:19;;;;;;;;;;;;;;;14.03;100.00;99894.75;4989118;28;19921;-81
2021/06/03 17:19:45;;;;;;;;;;;;;;;14.10;100.00;99901.47;4988114;28;19933;-80
2021/06/03 17:22:10;;;;;;;;;;;;;;;14.00;100.00;99886.94;5009720;28;20020;-83
2021/06/03 17:24:36;;;;;;;;;;;;;;;14.10;100.00;99888.13;4993769;28;19925;-82
2021/06/03 17:27:02;;;;;;;;;;;;;;;14.17;100.00;99886.88;5015095;28;19945;-82
2021/06/03 17:29:28;;;;;;;;;;;;;;;14.15;100.00;99885.22;4989796;28;19922;-81
2021/06/03 17:31:54;;;;;;;;;;;;;;;14.10;100.00;99897.94;4992249;28;19945;-80
2021/06/03 17:34:19;;;;;;;;;;;;;;;14.10;100.00;99895.28;5011322;28;20404;-82
2021/06/03 17:36:44;;;;;;;;;;;;;;;14.08;100.00;99891.84;4996832;28;19940;-81
2021/06/03 17:39:13;;;;;;;;;;;;;;;14.11;100.00;99895.19;5011983;28;19921;-82
2021/06/03 17:41:39;;;;;;;;;;;;;;;14.14;100.00;99897.69;4994842;28;19934;-83
2021/06/03 17:44:05;;;;;;;;;;;;;;;14.09;100.00;99899.75;4994224;28;19940;-82
2021/06/03 17:46:33;;;;;;;;;;;;;;;14.09;100.00;99898.91;5015567;28;19921;-83
2021/06/03 17:49:00;;;;;;;;;;;;;;;14.04;100.00;99896.50;4992573;28;19977;-82
2021/06/03 17:51:25;;;;;;;;;;;;;;;14.08;100.00;99902.50;5003643;28;20222;-81
2021/06/03 17:53:51;;;;;;;;;;;;;;;14.11;100.00;99905.00;4992437;28;19921;-83
2021/06/03 17:56:17;;;;;;;;;;;;;;;14.08;100.00;99903.34;4995315;28;19944;-82
2021/06/03 17:58:42;;;;;;;;;;;;;;;14.10;100.00;99896.13;4995202;28;19929;-81
2021/06/03 18:01:07;;;;;;;;;;;;;;;13.74;100.00;99896.38;5013585;28;19928;-83
2021/06/03 18:03:34;;;;;;;;;;;;;;;14.05;100.00;99900.00;5010332;28;19928;-81
2021/06/03 18:06:00;;;;;;;;;;;;;;;14.21;100.00;99892.03;5010496;28;19921;-81
2021/06/03 18:08:27;;;;;;;;;;;;;;;14.19;100.00;99889.44;5011586;28;20012;-81
2021/06/03 18:10:53;;;;;;;;;;;;;;;14.15;100.00;99893.22;5006271;28;19948;-80
2021/06/03 18:13:20;;;;;;;;;;;;;;;14.11;100.00;99895.19;5012347;28;20579;-82
2021/06/03 18:15:48;;;;;;;;;;;;;;;14.14;100.00;99895.03;5013106;28;19991;-83
2021/06/03 18:18:14;;;;;;;;;;;;;;;14.18;100.00;99895.69;5009959;28;20228;-80
2021/06/03 18:20:40;;;;;;;;;;;;;;;14.23;100.00;99892.78;5009483;28;19932;-81
2021/06/03 18:23:06;;;;;;;;;;;;;;;14.22;100.00;99893.75;5008679;28;19925;-79
2021/06/03 18:25:32;;;;;;;;;;;;;;;14.19;100.00;99892.09;4990864;28;19922;-82
2021/06/03 18:27:57;;;;;;;;;;;;;;;14.17;100.00;99897.53;5019706;28;19991;-83
2021/06/03 18:30:24;;;;;;;;;;;;;;;14.16;100.00;99900.28;4999635;28;19921;-81
2021/06/03 18:32:54;;;;;;;;;;;;;;;14.12;100.00;99891.59;5011743;28;20004;-81
2021/06/03 18:35:19;;;;;;;;;;;;;;;14.24;100.00;99892.69;5008189;28;20012;-81
2021/06/03 18:37:46;;;;;;;;;;;;;;;14.15;100.00;99891.44;4993654;28;20020;-81
2021/06/03 18:40:13;;;;;;;;;;;;;;;14.11;100.00;99887.19;5009655;28;20017;-80
2021/06/03 18:42:40;;;;;;;;;;;;;;;14.20;100.00;99896.50;5010900;28;20016;-81
2021/06/03 18:45:07;;;;;;;;;;;;;;;14.24;100.00;99898.03;5007278;28;20380;-80
2021/06/03 18:47:34;;;;;;;;;;;;;;;14.29;100.00;99895.97;5011719;28;20410;-82
2021/06/03 18:49:59;;;;;;;;;;;;;;;14.27;100.00;99902.34;4991355;28;20125;-80
2021/06/03 18:52:25;;;;;;;;;;;;;;;14.24;100.00;99898.03;5009797;28;20309;-82
2021/06/03 18:54:53;;;;;;;;;;;;;;;14.17;100.00;99894.00;4993906;28;19921;-81
2021/06/03 18:57:19;;;;;;;;;;;;;;;14.12;100.00;99893.38;5008693;28;19929;-82
2021/06/03 18:59:44;;;;;;;;;;;;;;;14.21;100.00;99892.03;5007665;28;20020;-81
2021/06/03 19:02:10;;;;;;;;;;;;;;;14.17;100.00;99897.53;5010886;28;20027;-79
2021/06/03 19:04:41;;;;;;;;;;;;;;;14.18;100.00;99903.69;5007348;28;19985;-80
2021/06/03 19:07:07;;;;;;;;;;;;;;;14.25;100.00;99899.75;4985852;28;19925;-81
2021/06/03 19:09:32;;;;;;;;;;;;;;;14.21;100.00;99900.88;5010416;28;20178;-81
2021/06/03 19:11:58;;;;;;;;;;;;;;;14.20;100.00;99904.50;5011508;28;19931;-81
2021/06/03 19:14:23;;;;;;;;;;;;;;;14.21;100.00;99903.53;5011196;28;20040;-81
2021/06/03 19:16:49;;;;;;;;;;;;;;;14.19;100.00;99910.75;4987643;28;19929;-80
2021/06/03 19:19:14;;;;;;;;;;;;;;;14.22;100.00;99910.59;4987677;28;19986;-81
2021/06/03 19:21:39;;;;;;;;;;;;;;;14.23;100.00;99906.09;5013716;28;19932;-81
2021/06/03 19:24:09;;;;;;;;;;;;;;;14.20;100.00;99903.63;5011089;28;20045;-83
2021/06/03 19:26:34;;;;;;;;;;;;;;;14.15;100.00;99911.88;5007141;28;20028;-82
2021/06/03 19:29:00;;;;;;;;;;;;;;;14.19;100.00;99907.25;5007756;28;20063;-79
2021/06/03 19:31:27;;;;;;;;;;;;;;;14.11;100.00;99913.84;5006550;28;19922;-83